Airfield :
LOGIN :

Register | Disclaimer

   EN    FR    IT 

 










Legend :    VFR   Marginal VFR   IFR   Intensive IFR   Very Intensive IFR
Visi :
Ceiling :
>= 8 km
>= 3000ft
5 to 8 km
1000 to 3000 ft
1500m to 5 km
500 to 1000 ft
800 to 1500m
200 to 500 ft
< 800m
< 200 ft
Symbols :   Thunderstorms  Fog  Heavy snow  Heavy precipitations  Wind > 20 kt
SIGMETs :     Misc.  Thunderstorms  Icing  Turbulence  Mountain Waves  Volcanic Ashes






- Airport Elevation : 82 ft
- IATA code : ALG


DAAG - Alger Houari Boumedienne

CURRENT METAR :
  • 121800Z 27006KT 230V310 9999 FEW020TCU SCT040 BKN200 14/11 Q1016

EXPIRED METARs :
  • 121730Z 30009KT 9999 FEW026TCU SCT040 BKN200 14/11 Q1017
  • 121700Z 28006KT 260V320 9999 FEW026TCU SCT040 BKN200 15/10 Q1017
  • 121630Z 28008KT 220V310 9999 FEW026TCU BKN200 15/08 Q1017
  • 121600Z 29010KT 9999 FEW026TCU BKN200 15/08 Q1017
  • 121530Z 30010KT 9999 FEW026TCU SCT200 16/06 Q1018

TAF TAF DAAG
Valid from the 12 at 18:00 until the 13 at 18:00 UTC


121700Z 1218/1318 28012KT 9999 SCT023 BKN200
TEMPO 1218/1221 FEW023TCU
PROB30
TEMPO 1218/1223 26020G35KT FEW026CB
BECMG 1301/1305 26022KT
PROB40
TEMPO 1305/1318 26022G32KT FEW023TCU



MET'MAP, your aeronautical weather chart ! - Copyright ORBIFLY December 2007 - Disclaimer

ORBIFLY MET'MAP TEAM :

Programming & Development : Alexandra Zaïnal
Concept & original design : Baudouin d'Aumeries
Assistance for programming : Marc-Olivier Méhu
Technical & hardware support : Manuel Goepfert

Contact : metmap@orbifly.com




SOURCES & CREDITS :

   NOAA